sensor_id;sensor_type;location;lat;lon;timestamp;P1;durP1;ratioP1;P2;durP2;ratioP2
57301;SDS011;43149;50.974;18.224;2023-04-21T00:05:06;19.70;;;10.50;;
57301;SDS011;43149;50.974;18.224;2023-04-21T00:14:59;23.50;;;6.20;;
57301;SDS011;43149;50.974;18.224;2023-04-21T00:24:43;20.40;;;5.70;;
57301;SDS011;43149;50.974;18.224;2023-04-21T00:34:33;7.30;;;5.40;;
57301;SDS011;43149;50.974;18.224;2023-04-21T00:46:41;33.80;;;17.40;;
57301;SDS011;43149;50.974;18.224;2023-04-21T00:56:31;18.40;;;9.30;;
57301;SDS011;43149;50.974;18.224;2023-04-21T01:06:18;31.40;;;8.10;;
57301;SDS011;43149;50.974;18.224;2023-04-21T01:16:04;9.30;;;3.80;;
57301;SDS011;43149;50.974;18.224;2023-04-21T01:25:49;19.50;;;10.50;;
57301;SDS011;43149;50.974;18.224;2023-04-21T01:35:40;18.50;;;10.50;;
57301;SDS011;43149;50.974;18.224;2023-04-21T01:45:24;19.40;;;9.30;;
57301;SDS011;43149;50.974;18.224;2023-04-21T01:55:07;8.50;;;7.00;;
57301;SDS011;43149;50.974;18.224;2023-04-21T02:04:53;16.40;;;10.00;;
57301;SDS011;43149;50.974;18.224;2023-04-21T02:14:37;17.20;;;9.60;;
57301;SDS011;43149;50.974;18.224;2023-04-21T02:24:21;27.40;;;14.50;;
57301;SDS011;43149;50.974;18.224;2023-04-21T02:34:05;4.60;;;4.20;;
57301;SDS011;43149;50.974;18.224;2023-04-21T02:43:50;28.80;;;16.00;;
57301;SDS011;43149;50.974;18.224;2023-04-21T02:53:38;20.60;;;12.70;;
57301;SDS011;43149;50.974;18.224;2023-04-21T03:03:24;19.50;;;11.40;;
57301;SDS011;43149;50.974;18.224;2023-04-21T03:13:12;12.30;;;7.70;;
57301;SDS011;43149;50.974;18.224;2023-04-21T03:22:56;23.90;;;9.70;;
57301;SDS011;43149;50.974;18.224;2023-04-21T03:32:40;16.10;;;10.90;;
57301;SDS011;43149;50.974;18.224;2023-04-21T03:42:23;24.30;;;15.50;;
57301;SDS011;43149;50.974;18.224;2023-04-21T03:52:07;14.60;;;8.40;;
57301;SDS011;43149;50.974;18.224;2023-04-21T04:01:50;21.70;;;12.90;;
57301;SDS011;43149;50.974;18.224;2023-04-21T04:11:34;20.80;;;12.70;;
57301;SDS011;43149;50.974;18.224;2023-04-21T04:21:19;21.20;;;12.70;;
57301;SDS011;43149;50.974;18.224;2023-04-21T04:31:02;43.50;;;21.20;;
57301;SDS011;43149;50.974;18.224;2023-04-21T04:40:52;29.20;;;15.40;;
57301;SDS011;43149;50.974;18.224;2023-04-21T04:50:37;27.00;;;13.40;;
57301;SDS011;43149;50.974;18.224;2023-04-21T05:00:20;27.20;;;15.00;;
57301;SDS011;43149;50.974;18.224;2023-04-21T05:10:03;13.40;;;11.70;;
57301;SDS011;43149;50.974;18.224;2023-04-21T05:19:50;31.60;;;10.80;;
57301;SDS011;43149;50.974;18.224;2023-04-21T05:29:34;24.10;;;13.00;;
57301;SDS011;43149;50.974;18.224;2023-04-21T05:39:17;41.80;;;14.00;;
57301;SDS011;43149;50.974;18.224;2023-04-21T05:56:22;32.90;;;12.00;;
57301;SDS011;43149;50.974;18.224;2023-04-21T06:06:05;16.30;;;10.80;;
57301;SDS011;43149;50.974;18.224;2023-04-21T06:15:48;31.60;;;12.80;;
57301;SDS011;43149;50.974;18.224;2023-04-21T06:25:34;23.10;;;10.90;;
57301;SDS011;43149;50.974;18.224;2023-04-21T06:35:17;24.80;;;11.50;;
57301;SDS011;43149;50.974;18.224;2023-04-21T06:45:04;17.50;;;9.80;;
57301;SDS011;43149;50.974;18.224;2023-04-21T06:54:49;13.90;;;10.50;;
57301;SDS011;43149;50.974;18.224;2023-04-21T07:04:33;19.90;;;13.30;;
57301;SDS011;43149;50.974;18.224;2023-04-21T07:14:19;16.70;;;10.70;;
57301;SDS011;43149;50.974;18.224;2023-04-21T07:24:03;15.90;;;10.00;;
57301;SDS011;43149;50.974;18.224;2023-04-21T07:33:49;13.50;;;9.80;;
57301;SDS011;43149;50.974;18.224;2023-04-21T07:43:39;26.50;;;13.10;;
57301;SDS011;43149;50.974;18.224;2023-04-21T07:53:23;24.10;;;9.80;;
57301;SDS011;43149;50.974;18.224;2023-04-21T08:03:07;19.80;;;10.60;;
57301;SDS011;43149;50.974;18.224;2023-04-21T08:12:50;21.30;;;9.70;;
57301;SDS011;43149;50.974;18.224;2023-04-21T08:22:34;20.30;;;11.10;;
57301;SDS011;43149;50.974;18.224;2023-04-21T08:32:19;12.50;;;8.70;;
57301;SDS011;43149;50.974;18.224;2023-04-21T08:42:09;23.70;;;9.50;;
57301;SDS011;43149;50.974;18.224;2023-04-21T08:51:54;7.20;;;6.40;;
57301;SDS011;43149;50.974;18.224;2023-04-21T09:11:54;12.80;;;7.80;;
57301;SDS011;43149;50.974;18.224;2023-04-21T09:21:54;16.00;;;8.50;;
57301;SDS011;43149;50.974;18.224;2023-04-21T09:31:48;19.00;;;5.80;;
57301;SDS011;43149;50.974;18.224;2023-04-21T09:41:38;11.00;;;5.70;;
57301;SDS011;43149;50.974;18.224;2023-04-21T09:51:30;13.80;;;7.40;;
57301;SDS011;43149;50.974;18.224;2023-04-21T10:01:17;7.10;;;5.90;;
57301;SDS011;43149;50.974;18.224;2023-04-21T10:11:04;20.80;;;8.90;;
57301;SDS011;43149;50.974;18.224;2023-04-21T10:21:18;20.10;;;6.60;;
57301;SDS011;43149;50.974;18.224;2023-04-21T10:49:25;10.90;;;4.90;;
57301;SDS011;43149;50.974;18.224;2023-04-21T10:59:22;14.80;;;6.80;;
57301;SDS011;43149;50.974;18.224;2023-04-21T11:09:07;5.50;;;4.90;;
57301;SDS011;43149;50.974;18.224;2023-04-21T11:18:52;22.50;;;5.60;;
57301;SDS011;43149;50.974;18.224;2023-04-21T11:28:55;4.40;;;3.50;;
57301;SDS011;43149;50.974;18.224;2023-04-21T11:40:08;4.50;;;4.20;;
57301;SDS011;43149;50.974;18.224;2023-04-21T11:51:13;10.70;;;4.30;;
57301;SDS011;43149;50.974;18.224;2023-04-21T12:02:24;5.10;;;4.20;;
57301;SDS011;43149;50.974;18.224;2023-04-21T12:13:11;6.20;;;4.20;;
57301;SDS011;43149;50.974;18.224;2023-04-21T12:22:58;17.50;;;11.50;;
57301;SDS011;43149;50.974;18.224;2023-04-21T12:32:46;12.10;;;4.30;;
57301;SDS011;43149;50.974;18.224;2023-04-21T12:42:30;15.20;;;4.40;;
57301;SDS011;43149;50.974;18.224;2023-04-21T12:52:14;7.60;;;3.80;;
57301;SDS011;43149;50.974;18.224;2023-04-21T13:01:58;3.40;;;3.10;;
57301;SDS011;43149;50.974;18.224;2023-04-21T13:11:42;5.00;;;2.70;;
57301;SDS011;43149;50.974;18.224;2023-04-21T13:21:25;11.90;;;3.80;;
57301;SDS011;43149;50.974;18.224;2023-04-21T13:31:09;4.10;;;3.80;;
57301;SDS011;43149;50.974;18.224;2023-04-21T13:40:53;3.40;;;3.10;;
57301;SDS011;43149;50.974;18.224;2023-04-21T13:50:40;5.60;;;2.70;;
57301;SDS011;43149;50.974;18.224;2023-04-21T14:00:23;3.10;;;2.90;;
57301;SDS011;43149;50.974;18.224;2023-04-21T14:10:08;1.10;;;1.10;;
57301;SDS011;43149;50.974;18.224;2023-04-21T14:19:56;2.60;;;2.40;;
57301;SDS011;43149;50.974;18.224;2023-04-21T14:29:39;2.70;;;2.50;;
57301;SDS011;43149;50.974;18.224;2023-04-21T14:46:40;13.70;;;2.80;;
57301;SDS011;43149;50.974;18.224;2023-04-21T14:56:24;6.00;;;3.90;;
57301;SDS011;43149;50.974;18.224;2023-04-21T15:06:08;1.60;;;1.50;;
57301;SDS011;43149;50.974;18.224;2023-04-21T15:15:51;2.90;;;2.50;;
57301;SDS011;43149;50.974;18.224;2023-04-21T15:25:37;4.30;;;2.00;;
57301;SDS011;43149;50.974;18.224;2023-04-21T15:35:23;3.50;;;3.10;;
57301;SDS011;43149;50.974;18.224;2023-04-21T15:45:06;2.30;;;2.10;;
57301;SDS011;43149;50.974;18.224;2023-04-21T15:54:51;2.60;;;2.40;;
57301;SDS011;43149;50.974;18.224;2023-04-21T16:04:36;2.70;;;2.50;;
57301;SDS011;43149;50.974;18.224;2023-04-21T16:14:19;2.20;;;1.80;;
57301;SDS011;43149;50.974;18.224;2023-04-21T16:24:04;1.60;;;1.50;;
57301;SDS011;43149;50.974;18.224;2023-04-21T16:33:49;4.60;;;3.10;;
57301;SDS011;43149;50.974;18.224;2023-04-21T16:43:37;7.30;;;2.40;;
57301;SDS011;43149;50.974;18.224;2023-04-21T16:53:22;9.30;;;4.50;;
57301;SDS011;43149;50.974;18.224;2023-04-21T17:03:08;3.30;;;3.10;;
57301;SDS011;43149;50.974;18.224;2023-04-21T17:12:53;6.90;;;4.10;;
57301;SDS011;43149;50.974;18.224;2023-04-21T17:22:38;5.50;;;4.00;;
57301;SDS011;43149;50.974;18.224;2023-04-21T17:32:22;13.40;;;6.20;;
57301;SDS011;43149;50.974;18.224;2023-04-21T17:42:05;19.60;;;7.80;;
57301;SDS011;43149;50.974;18.224;2023-04-21T17:51:50;72.60;;;15.20;;
57301;SDS011;43149;50.974;18.224;2023-04-21T18:01:38;15.60;;;9.30;;
57301;SDS011;43149;50.974;18.224;2023-04-21T18:11:22;18.20;;;12.40;;
57301;SDS011;43149;50.974;18.224;2023-04-21T18:21:05;8.30;;;5.00;;
57301;SDS011;43149;50.974;18.224;2023-04-21T18:30:49;39.20;;;8.40;;
57301;SDS011;43149;50.974;18.224;2023-04-21T18:40:36;10.60;;;4.00;;
57301;SDS011;43149;50.974;18.224;2023-04-21T18:50:23;19.90;;;12.00;;
57301;SDS011;43149;50.974;18.224;2023-04-21T19:00:10;24.60;;;13.70;;
57301;SDS011;43149;50.974;18.224;2023-04-21T19:09:53;5.40;;;4.80;;
57301;SDS011;43149;50.974;18.224;2023-04-21T19:19:37;13.80;;;9.70;;
57301;SDS011;43149;50.974;18.224;2023-04-21T19:29:23;16.50;;;12.30;;
57301;SDS011;43149;50.974;18.224;2023-04-21T19:39:07;16.90;;;11.80;;
57301;SDS011;43149;50.974;18.224;2023-04-21T19:48:52;16.00;;;9.80;;
57301;SDS011;43149;50.974;18.224;2023-04-21T19:58:38;23.10;;;14.50;;
57301;SDS011;43149;50.974;18.224;2023-04-21T20:08:23;60.80;;;19.70;;
57301;SDS011;43149;50.974;18.224;2023-04-21T20:18:06;33.10;;;18.00;;
57301;SDS011;43149;50.974;18.224;2023-04-21T20:27:53;45.80;;;16.50;;
57301;SDS011;43149;50.974;18.224;2023-04-21T20:37:39;36.00;;;16.10;;
57301;SDS011;43149;50.974;18.224;2023-04-21T20:47:31;37.40;;;15.40;;
57301;SDS011;43149;50.974;18.224;2023-04-21T20:57:15;35.30;;;15.50;;
57301;SDS011;43149;50.974;18.224;2023-04-21T21:06:59;30.60;;;13.70;;
57301;SDS011;43149;50.974;18.224;2023-04-21T21:16:46;25.20;;;14.00;;
57301;SDS011;43149;50.974;18.224;2023-04-21T21:26:29;18.80;;;12.40;;
57301;SDS011;43149;50.974;18.224;2023-04-21T21:36:13;13.10;;;9.10;;
57301;SDS011;43149;50.974;18.224;2023-04-21T21:45:58;16.20;;;9.10;;
57301;SDS011;43149;50.974;18.224;2023-04-21T21:55:41;12.70;;;8.40;;
57301;SDS011;43149;50.974;18.224;2023-04-21T22:05:26;17.60;;;9.70;;
57301;SDS011;43149;50.974;18.224;2023-04-21T22:15:10;12.10;;;10.80;;
57301;SDS011;43149;50.974;18.224;2023-04-21T22:24:57;12.60;;;8.70;;
57301;SDS011;43149;50.974;18.224;2023-04-21T22:34:41;16.30;;;12.00;;
57301;SDS011;43149;50.974;18.224;2023-04-21T22:44:25;11.70;;;8.40;;
57301;SDS011;43149;50.974;18.224;2023-04-21T22:54:11;14.20;;;8.50;;
57301;SDS011;43149;50.974;18.224;2023-04-21T23:03:56;21.70;;;12.50;;
57301;SDS011;43149;50.974;18.224;2023-04-21T23:13:39;47.60;;;15.00;;
57301;SDS011;43149;50.974;18.224;2023-04-21T23:23:22;20.10;;;13.30;;
57301;SDS011;43149;50.974;18.224;2023-04-21T23:33:05;21.10;;;12.90;;
57301;SDS011;43149;50.974;18.224;2023-04-21T23:42:49;23.20;;;13.30;;
57301;SDS011;43149;50.974;18.224;2023-04-21T23:52:32;17.90;;;12.20;;
